Brightside, New York
Current Conditions -  °F | °C
As of 5:51 AM on Tuesday 21 Oct 2014 (Local Time) from KSLK Reporting Station
Light Rain Light Rain  
Wind Chill: 36°   Ceiling: 4400
Heat Index: 40°   Visibility: 10mi
Dew Point: 39°   Wind: 6mph
Humidity: 97%   Direction: 50°NE
Pressure: 29.87"   Gusts: NA
Location:  43.8706°N, 74.5546°W
Report Text: KSLK 210951Z AUTO 05005KT 10SM -RA SCT033 OVC044 04/04 A2987 RMK AO2 SLP123 P0001 T00440039 $
Loading
Personal Weather Stations






























Interactive Weather Map
Tropical Storm Tracking
New forecast layout! Learn more

10-Day Weather Forecast

Advertisements
Track Severe Weather on mobile